sensor_id;sensor_type;location;lat;lon;timestamp;temperature;humidity
49441;DHT22;35317;51.978;6.296;2023-02-11T00:01:29;7.80;99.90
49441;DHT22;35317;51.978;6.296;2023-02-11T00:06:32;7.80;99.90
49441;DHT22;35317;51.978;6.296;2023-02-11T00:11:33;7.80;99.90
49441;DHT22;35317;51.978;6.296;2023-02-11T00:16:34;7.70;99.90
49441;DHT22;35317;51.978;6.296;2023-02-11T00:21:35;7.80;99.90
49441;DHT22;35317;51.978;6.296;2023-02-11T00:26:36;7.80;99.90
49441;DHT22;35317;51.978;6.296;2023-02-11T00:31:36;7.80;99.90
49441;DHT22;35317;51.978;6.296;2023-02-11T00:36:37;7.80;99.90
49441;DHT22;35317;51.978;6.296;2023-02-11T00:41:38;7.80;99.90
49441;DHT22;35317;51.978;6.296;2023-02-11T00:46:39;7.80;99.90
49441;DHT22;35317;51.978;6.296;2023-02-11T00:51:40;7.80;99.90
49441;DHT22;35317;51.978;6.296;2023-02-11T00:56:41;7.80;99.90
49441;DHT22;35317;51.978;6.296;2023-02-11T01:01:43;7.80;99.90
49441;DHT22;35317;51.978;6.296;2023-02-11T01:06:43;7.80;99.90
49441;DHT22;35317;51.978;6.296;2023-02-11T01:11:44;7.70;99.90
49441;DHT22;35317;51.978;6.296;2023-02-11T01:16:45;7.80;99.90
49441;DHT22;35317;51.978;6.296;2023-02-11T01:21:45;7.80;99.90
49441;DHT22;35317;51.978;6.296;2023-02-11T01:26:46;7.80;99.90
49441;DHT22;35317;51.978;6.296;2023-02-11T01:31:47;7.80;99.90
49441;DHT22;35317;51.978;6.296;2023-02-11T01:36:48;7.80;99.90
49441;DHT22;35317;51.978;6.296;2023-02-11T01:41:48;7.70;99.90
49441;DHT22;35317;51.978;6.296;2023-02-11T01:46:49;7.70;99.90
49441;DHT22;35317;51.978;6.296;2023-02-11T01:51:55;7.70;99.90
49441;DHT22;35317;51.978;6.296;2023-02-11T01:57:04;7.70;99.90
49441;DHT22;35317;51.978;6.296;2023-02-11T02:02:31;7.70;99.90
49441;DHT22;35317;51.978;6.296;2023-02-11T02:07:51;7.70;99.90
49441;DHT22;35317;51.978;6.296;2023-02-11T02:13:14;7.70;99.90
49441;DHT22;35317;51.978;6.296;2023-02-11T02:23:49;7.70;99.90
49441;DHT22;35317;51.978;6.296;2023-02-11T02:39:44;7.70;99.90
49441;DHT22;35317;51.978;6.296;2023-02-11T02:44:48;7.70;99.90
49441;DHT22;35317;51.978;6.296;2023-02-11T02:49:50;7.70;99.90
49441;DHT22;35317;51.978;6.296;2023-02-11T02:55:25;7.60;99.90
49441;DHT22;35317;51.978;6.296;2023-02-11T03:11:22;7.60;99.90
49441;DHT22;35317;51.978;6.296;2023-02-11T03:16:27;7.70;99.90
49441;DHT22;35317;51.978;6.296;2023-02-11T03:21:31;7.70;99.90
49441;DHT22;35317;51.978;6.296;2023-02-11T03:26:40;7.70;99.90
49441;DHT22;35317;51.978;6.296;2023-02-11T03:31:55;7.70;99.90
49441;DHT22;35317;51.978;6.296;2023-02-11T03:37:06;7.70;99.90
49441;DHT22;35317;51.978;6.296;2023-02-11T03:42:12;7.70;99.90
49441;DHT22;35317;51.978;6.296;2023-02-11T03:47:14;7.70;99.90
49441;DHT22;35317;51.978;6.296;2023-02-11T03:52:20;7.70;99.90
49441;DHT22;35317;51.978;6.296;2023-02-11T03:57:22;7.60;99.90
49441;DHT22;35317;51.978;6.296;2023-02-11T04:02:30;7.70;99.90
49441;DHT22;35317;51.978;6.296;2023-02-11T04:07:32;7.70;99.90
49441;DHT22;35317;51.978;6.296;2023-02-11T04:12:33;7.70;99.90
49441;DHT22;35317;51.978;6.296;2023-02-11T04:17:34;7.70;99.90
49441;DHT22;35317;51.978;6.296;2023-02-11T04:22:35;7.70;99.90
49441;DHT22;35317;51.978;6.296;2023-02-11T04:27:36;7.70;99.90
49441;DHT22;35317;51.978;6.296;2023-02-11T04:32:37;7.60;99.90
49441;DHT22;35317;51.978;6.296;2023-02-11T04:37:38;7.70;99.90
49441;DHT22;35317;51.978;6.296;2023-02-11T04:42:39;7.60;99.90
49441;DHT22;35317;51.978;6.296;2023-02-11T04:47:40;7.70;99.90
49441;DHT22;35317;51.978;6.296;2023-02-11T04:52:41;7.70;99.90
49441;DHT22;35317;51.978;6.296;2023-02-11T04:57:42;7.70;99.90
49441;DHT22;35317;51.978;6.296;2023-02-11T05:02:42;7.60;99.90
49441;DHT22;35317;51.978;6.296;2023-02-11T05:07:43;7.70;99.90
49441;DHT22;35317;51.978;6.296;2023-02-11T05:12:44;7.60;99.90
49441;DHT22;35317;51.978;6.296;2023-02-11T05:17:47;7.60;99.90
49441;DHT22;35317;51.978;6.296;2023-02-11T05:22:48;7.60;99.90
49441;DHT22;35317;51.978;6.296;2023-02-11T05:27:49;7.60;99.90
49441;DHT22;35317;51.978;6.296;2023-02-11T05:32:50;7.60;99.90
49441;DHT22;35317;51.978;6.296;2023-02-11T05:37:50;7.60;99.90
49441;DHT22;35317;51.978;6.296;2023-02-11T05:42:51;7.60;99.90
49441;DHT22;35317;51.978;6.296;2023-02-11T05:47:52;7.60;99.90
49441;DHT22;35317;51.978;6.296;2023-02-11T05:52:53;7.60;99.90
49441;DHT22;35317;51.978;6.296;2023-02-11T05:57:53;7.60;99.90
49441;DHT22;35317;51.978;6.296;2023-02-11T06:02:54;7.60;99.90
49441;DHT22;35317;51.978;6.296;2023-02-11T06:07:55;7.60;99.90
49441;DHT22;35317;51.978;6.296;2023-02-11T06:12:56;7.60;99.90
49441;DHT22;35317;51.978;6.296;2023-02-11T06:17:56;7.60;99.90
49441;DHT22;35317;51.978;6.296;2023-02-11T06:22:57;7.60;99.90
49441;DHT22;35317;51.978;6.296;2023-02-11T06:27:58;7.60;99.90
49441;DHT22;35317;51.978;6.296;2023-02-11T06:32:59;7.60;99.90
49441;DHT22;35317;51.978;6.296;2023-02-11T06:38:00;7.60;99.90
49441;DHT22;35317;51.978;6.296;2023-02-11T06:43:01;7.60;99.90
49441;DHT22;35317;51.978;6.296;2023-02-11T06:48:01;7.60;99.90
49441;DHT22;35317;51.978;6.296;2023-02-11T06:53:02;7.60;99.90
49441;DHT22;35317;51.978;6.296;2023-02-11T06:58:03;7.60;99.90
49441;DHT22;35317;51.978;6.296;2023-02-11T07:03:04;7.60;99.90
49441;DHT22;35317;51.978;6.296;2023-02-11T07:08:05;7.60;99.90
49441;DHT22;35317;51.978;6.296;2023-02-11T07:13:05;7.60;99.90
49441;DHT22;35317;51.978;6.296;2023-02-11T07:18:06;7.60;99.90
49441;DHT22;35317;51.978;6.296;2023-02-11T07:23:07;7.60;99.90
49441;DHT22;35317;51.978;6.296;2023-02-11T07:28:08;7.60;99.90
49441;DHT22;35317;51.978;6.296;2023-02-11T07:33:08;7.60;99.90
49441;DHT22;35317;51.978;6.296;2023-02-11T07:38:09;7.60;99.90
49441;DHT22;35317;51.978;6.296;2023-02-11T07:43:10;7.60;99.90
49441;DHT22;35317;51.978;6.296;2023-02-11T07:48:11;7.70;99.90
49441;DHT22;35317;51.978;6.296;2023-02-11T07:53:11;7.70;99.90
49441;DHT22;35317;51.978;6.296;2023-02-11T07:58:12;7.70;99.90
49441;DHT22;35317;51.978;6.296;2023-02-11T08:03:13;7.80;99.90
49441;DHT22;35317;51.978;6.296;2023-02-11T08:08:13;7.80;99.90
49441;DHT22;35317;51.978;6.296;2023-02-11T08:13:14;7.90;99.90
49441;DHT22;35317;51.978;6.296;2023-02-11T08:18:15;7.90;99.90
49441;DHT22;35317;51.978;6.296;2023-02-11T08:23:16;8.00;99.90
49441;DHT22;35317;51.978;6.296;2023-02-11T08:28:16;8.10;99.90
49441;DHT22;35317;51.978;6.296;2023-02-11T08:33:17;8.20;99.90
49441;DHT22;35317;51.978;6.296;2023-02-11T08:38:18;8.30;99.90
49441;DHT22;35317;51.978;6.296;2023-02-11T08:43:19;8.30;99.90
49441;DHT22;35317;51.978;6.296;2023-02-11T08:48:19;8.40;99.90
49441;DHT22;35317;51.978;6.296;2023-02-11T08:53:20;8.40;99.90
49441;DHT22;35317;51.978;6.296;2023-02-11T08:58:21;8.40;99.90
49441;DHT22;35317;51.978;6.296;2023-02-11T09:03:22;8.50;99.90
49441;DHT22;35317;51.978;6.296;2023-02-11T09:08:23;8.50;99.90
49441;DHT22;35317;51.978;6.296;2023-02-11T09:13:24;8.60;99.90
49441;DHT22;35317;51.978;6.296;2023-02-11T09:18:25;8.60;99.90
49441;DHT22;35317;51.978;6.296;2023-02-11T09:23:26;8.60;99.90
49441;DHT22;35317;51.978;6.296;2023-02-11T09:28:26;8.70;99.90
49441;DHT22;35317;51.978;6.296;2023-02-11T09:33:27;8.70;99.90
49441;DHT22;35317;51.978;6.296;2023-02-11T09:38:28;8.80;99.90
49441;DHT22;35317;51.978;6.296;2023-02-11T09:43:37;8.80;99.90
49441;DHT22;35317;51.978;6.296;2023-02-11T09:48:45;8.90;99.90
49441;DHT22;35317;51.978;6.296;2023-02-11T09:53:50;9.00;99.90
49441;DHT22;35317;51.978;6.296;2023-02-11T09:58:56;9.10;99.90
49441;DHT22;35317;51.978;6.296;2023-02-11T10:04:13;9.30;99.90
49441;DHT22;35317;51.978;6.296;2023-02-11T10:09:45;9.40;99.90
49441;DHT22;35317;51.978;6.296;2023-02-11T10:20:36;9.60;99.90
49441;DHT22;35317;51.978;6.296;2023-02-11T10:25:42;9.60;99.90
49441;DHT22;35317;51.978;6.296;2023-02-11T10:31:04;9.70;99.90
49441;DHT22;35317;51.978;6.296;2023-02-11T10:36:12;9.80;99.90
49441;DHT22;35317;51.978;6.296;2023-02-11T10:41:21;9.80;99.90
49441;DHT22;35317;51.978;6.296;2023-02-11T10:46:30;10.00;99.90
49441;DHT22;35317;51.978;6.296;2023-02-11T10:51:33;10.20;99.90
49441;DHT22;35317;51.978;6.296;2023-02-11T10:56:36;10.40;99.90
49441;DHT22;35317;51.978;6.296;2023-02-11T11:01:47;10.50;99.90
49441;DHT22;35317;51.978;6.296;2023-02-11T11:06:50;10.50;99.90
49441;DHT22;35317;51.978;6.296;2023-02-11T11:11:51;10.50;99.90
49441;DHT22;35317;51.978;6.296;2023-02-11T11:16:55;10.60;99.90
49441;DHT22;35317;51.978;6.296;2023-02-11T11:21:56;10.50;99.90
49441;DHT22;35317;51.978;6.296;2023-02-11T11:26:59;10.50;99.90
49441;DHT22;35317;51.978;6.296;2023-02-11T11:32:23;10.50;99.90
49441;DHT22;35317;51.978;6.296;2023-02-11T11:37:30;10.50;99.90
49441;DHT22;35317;51.978;6.296;2023-02-11T11:42:34;10.50;99.90
49441;DHT22;35317;51.978;6.296;2023-02-11T11:58:34;10.60;99.90
49441;DHT22;35317;51.978;6.296;2023-02-11T12:03:58;10.70;99.90
49441;DHT22;35317;51.978;6.296;2023-02-11T12:15:35;10.90;99.90
49441;DHT22;35317;51.978;6.296;2023-02-11T12:21:05;11.00;99.90
49441;DHT22;35317;51.978;6.296;2023-02-11T12:26:13;11.10;99.90
49441;DHT22;35317;51.978;6.296;2023-02-11T12:42:32;11.20;99.90
49441;DHT22;35317;51.978;6.296;2023-02-11T12:58:59;11.50;99.90
49441;DHT22;35317;51.978;6.296;2023-02-11T13:04:40;11.60;99.90
49441;DHT22;35317;51.978;6.296;2023-02-11T13:10:00;11.60;99.90
49441;DHT22;35317;51.978;6.296;2023-02-11T13:15:12;11.70;99.90
49441;DHT22;35317;51.978;6.296;2023-02-11T13:20:31;11.80;99.60
49441;DHT22;35317;51.978;6.296;2023-02-11T13:25:52;11.80;99.40
49441;DHT22;35317;51.978;6.296;2023-02-11T13:30:56;11.90;99.20
49441;DHT22;35317;51.978;6.296;2023-02-11T13:41:06;11.80;99.00
49441;DHT22;35317;51.978;6.296;2023-02-11T13:46:16;11.80;99.00
49441;DHT22;35317;51.978;6.296;2023-02-11T13:51:35;11.80;99.00
49441;DHT22;35317;51.978;6.296;2023-02-11T13:56:39;11.80;99.00
49441;DHT22;35317;51.978;6.296;2023-02-11T14:07:29;11.80;99.00
49441;DHT22;35317;51.978;6.296;2023-02-11T14:13:23;11.80;98.90
49441;DHT22;35317;51.978;6.296;2023-02-11T14:23:39;11.80;98.90
49441;DHT22;35317;51.978;6.296;2023-02-11T14:28:41;11.70;98.90
49441;DHT22;35317;51.978;6.296;2023-02-11T14:34:03;11.70;99.00
49441;DHT22;35317;51.978;6.296;2023-02-11T14:44:25;11.70;99.10
49441;DHT22;35317;51.978;6.296;2023-02-11T14:49:32;11.70;99.10
49441;DHT22;35317;51.978;6.296;2023-02-11T14:54:34;11.70;99.00
49441;DHT22;35317;51.978;6.296;2023-02-11T14:59:35;11.70;99.10
49441;DHT22;35317;51.978;6.296;2023-02-11T15:04:36;11.70;99.20
49441;DHT22;35317;51.978;6.296;2023-02-11T15:14:47;11.70;99.10
49441;DHT22;35317;51.978;6.296;2023-02-11T15:19:57;11.60;99.00
49441;DHT22;35317;51.978;6.296;2023-02-11T15:25:12;11.50;99.10
49441;DHT22;35317;51.978;6.296;2023-02-11T15:35:24;11.30;99.50
49441;DHT22;35317;51.978;6.296;2023-02-11T15:40:30;11.20;99.50
49441;DHT22;35317;51.978;6.296;2023-02-11T15:50:36;10.80;99.90
49441;DHT22;35317;51.978;6.296;2023-02-11T15:55:40;10.70;99.90
49441;DHT22;35317;51.978;6.296;2023-02-11T16:00:47;10.60;99.90
49441;DHT22;35317;51.978;6.296;2023-02-11T16:05:49;10.50;99.90
49441;DHT22;35317;51.978;6.296;2023-02-11T16:11:03;10.40;99.90
49441;DHT22;35317;51.978;6.296;2023-02-11T16:16:26;10.30;99.90
49441;DHT22;35317;51.978;6.296;2023-02-11T16:21:36;10.20;99.90
49441;DHT22;35317;51.978;6.296;2023-02-11T16:26:49;10.10;99.90
49441;DHT22;35317;51.978;6.296;2023-02-11T16:32:04;10.00;99.90
49441;DHT22;35317;51.978;6.296;2023-02-11T16:37:18;9.90;99.90
49441;DHT22;35317;51.978;6.296;2023-02-11T16:42:19;9.90;99.90
49441;DHT22;35317;51.978;6.296;2023-02-11T16:47:28;9.70;99.90
49441;DHT22;35317;51.978;6.296;2023-02-11T16:52:30;9.60;99.90
49441;DHT22;35317;51.978;6.296;2023-02-11T16:57:31;9.40;99.90
49441;DHT22;35317;51.978;6.296;2023-02-11T17:02:33;9.30;99.90
49441;DHT22;35317;51.978;6.296;2023-02-11T17:07:35;9.20;99.90
49441;DHT22;35317;51.978;6.296;2023-02-11T17:12:36;9.10;99.90
49441;DHT22;35317;51.978;6.296;2023-02-11T17:17:37;9.10;99.90
49441;DHT22;35317;51.978;6.296;2023-02-11T17:22:38;9.10;99.90
49441;DHT22;35317;51.978;6.296;2023-02-11T17:27:38;9.00;99.90
49441;DHT22;35317;51.978;6.296;2023-02-11T17:32:40;9.00;99.90
49441;DHT22;35317;51.978;6.296;2023-02-11T17:37:40;8.90;99.90
49441;DHT22;35317;51.978;6.296;2023-02-11T17:42:41;8.70;99.90
49441;DHT22;35317;51.978;6.296;2023-02-11T17:47:42;8.60;99.90
49441;DHT22;35317;51.978;6.296;2023-02-11T17:52:43;8.50;99.90
49441;DHT22;35317;51.978;6.296;2023-02-11T17:57:44;8.40;99.90
49441;DHT22;35317;51.978;6.296;2023-02-11T18:02:44;8.30;99.90
49441;DHT22;35317;51.978;6.296;2023-02-11T18:07:45;8.30;99.90
49441;DHT22;35317;51.978;6.296;2023-02-11T18:12:47;8.30;99.90
49441;DHT22;35317;51.978;6.296;2023-02-11T18:17:48;8.20;99.90
49441;DHT22;35317;51.978;6.296;2023-02-11T18:22:49;8.20;99.90
49441;DHT22;35317;51.978;6.296;2023-02-11T18:27:50;8.30;99.90
49441;DHT22;35317;51.978;6.296;2023-02-11T18:32:54;8.30;99.90
49441;DHT22;35317;51.978;6.296;2023-02-11T18:37:55;8.30;99.90
49441;DHT22;35317;51.978;6.296;2023-02-11T18:42:56;8.40;99.90
49441;DHT22;35317;51.978;6.296;2023-02-11T18:47:57;8.40;99.90
49441;DHT22;35317;51.978;6.296;2023-02-11T18:53:00;8.50;99.90
49441;DHT22;35317;51.978;6.296;2023-02-11T18:58:01;8.60;99.90
49441;DHT22;35317;51.978;6.296;2023-02-11T19:03:02;8.60;99.90
49441;DHT22;35317;51.978;6.296;2023-02-11T19:08:03;8.60;99.90
49441;DHT22;35317;51.978;6.296;2023-02-11T19:13:04;8.70;99.90
49441;DHT22;35317;51.978;6.296;2023-02-11T19:18:05;8.70;99.90
49441;DHT22;35317;51.978;6.296;2023-02-11T19:23:06;8.70;99.90
49441;DHT22;35317;51.978;6.296;2023-02-11T19:28:07;8.80;99.90
49441;DHT22;35317;51.978;6.296;2023-02-11T19:33:07;8.80;99.90
49441;DHT22;35317;51.978;6.296;2023-02-11T19:38:08;8.80;99.90
49441;DHT22;35317;51.978;6.296;2023-02-11T19:43:09;8.90;99.90
49441;DHT22;35317;51.978;6.296;2023-02-11T19:48:11;8.90;99.90
49441;DHT22;35317;51.978;6.296;2023-02-11T19:53:12;8.90;99.90
49441;DHT22;35317;51.978;6.296;2023-02-11T19:58:14;8.90;99.90
49441;DHT22;35317;51.978;6.296;2023-02-11T20:03:15;8.90;99.90
49441;DHT22;35317;51.978;6.296;2023-02-11T20:08:16;8.90;99.90
49441;DHT22;35317;51.978;6.296;2023-02-11T20:13:17;8.90;99.90
49441;DHT22;35317;51.978;6.296;2023-02-11T20:18:18;8.90;99.90
49441;DHT22;35317;51.978;6.296;2023-02-11T20:23:19;8.90;99.90
49441;DHT22;35317;51.978;6.296;2023-02-11T20:28:20;8.90;99.90
49441;DHT22;35317;51.978;6.296;2023-02-11T20:33:21;8.90;99.90
49441;DHT22;35317;51.978;6.296;2023-02-11T20:38:21;8.90;99.90
49441;DHT22;35317;51.978;6.296;2023-02-11T20:43:25;8.90;99.90
49441;DHT22;35317;51.978;6.296;2023-02-11T20:48:26;8.90;99.90
49441;DHT22;35317;51.978;6.296;2023-02-11T20:53:27;8.90;99.90
49441;DHT22;35317;51.978;6.296;2023-02-11T20:58:27;9.00;99.90
49441;DHT22;35317;51.978;6.296;2023-02-11T21:03:28;8.90;99.90
49441;DHT22;35317;51.978;6.296;2023-02-11T21:08:29;9.00;99.90
49441;DHT22;35317;51.978;6.296;2023-02-11T21:13:30;9.00;99.90
49441;DHT22;35317;51.978;6.296;2023-02-11T21:18:31;9.00;99.90
49441;DHT22;35317;51.978;6.296;2023-02-11T21:23:32;9.00;99.90
49441;DHT22;35317;51.978;6.296;2023-02-11T21:28:33;8.90;99.90
49441;DHT22;35317;51.978;6.296;2023-02-11T21:33:34;8.90;99.90
49441;DHT22;35317;51.978;6.296;2023-02-11T21:38:35;9.00;99.90
49441;DHT22;35317;51.978;6.296;2023-02-11T21:43:36;9.00;99.90
49441;DHT22;35317;51.978;6.296;2023-02-11T21:48:36;8.90;99.90
49441;DHT22;35317;51.978;6.296;2023-02-11T21:53:37;8.90;99.90
49441;DHT22;35317;51.978;6.296;2023-02-11T21:58:38;8.90;99.90
49441;DHT22;35317;51.978;6.296;2023-02-11T22:03:40;8.90;99.90
49441;DHT22;35317;51.978;6.296;2023-02-11T22:08:41;8.90;99.90
49441;DHT22;35317;51.978;6.296;2023-02-11T22:13:42;8.90;99.90
49441;DHT22;35317;51.978;6.296;2023-02-11T22:18:42;8.90;99.90
49441;DHT22;35317;51.978;6.296;2023-02-11T22:23:47;8.90;99.90
49441;DHT22;35317;51.978;6.296;2023-02-11T22:28:50;8.90;99.90
49441;DHT22;35317;51.978;6.296;2023-02-11T22:33:51;8.90;99.90
49441;DHT22;35317;51.978;6.296;2023-02-11T22:38:53;8.90;99.90
49441;DHT22;35317;51.978;6.296;2023-02-11T22:43:53;8.90;99.90
49441;DHT22;35317;51.978;6.296;2023-02-11T22:48:54;8.90;99.90
49441;DHT22;35317;51.978;6.296;2023-02-11T22:53:58;8.90;99.90
49441;DHT22;35317;51.978;6.296;2023-02-11T22:59:03;8.90;99.90
49441;DHT22;35317;51.978;6.296;2023-02-11T23:04:07;8.90;99.90
49441;DHT22;35317;51.978;6.296;2023-02-11T23:09:10;8.90;99.90
49441;DHT22;35317;51.978;6.296;2023-02-11T23:14:13;8.90;99.90
49441;DHT22;35317;51.978;6.296;2023-02-11T23:19:14;8.90;99.90
49441;DHT22;35317;51.978;6.296;2023-02-11T23:24:16;8.80;99.90
49441;DHT22;35317;51.978;6.296;2023-02-11T23:29:17;8.80;99.90
49441;DHT22;35317;51.978;6.296;2023-02-11T23:34:17;8.80;99.90
49441;DHT22;35317;51.978;6.296;2023-02-11T23:39:24;8.80;99.90
49441;DHT22;35317;51.978;6.296;2023-02-11T23:44:25;8.90;99.90
49441;DHT22;35317;51.978;6.296;2023-02-11T23:49:26;8.80;99.90
49441;DHT22;35317;51.978;6.296;2023-02-11T23:54:27;8.80;99.90
49441;DHT22;35317;51.978;6.296;2023-02-11T23:59:28;8.80;99.90
